createdAt,value
2018-09-04T00:00:01.862Z,97.10
2018-09-04T00:02:30.729Z,97.10
2018-09-04T00:04:59.678Z,96.90
2018-09-04T00:07:28.561Z,96.80
2018-09-04T00:09:57.440Z,96.80
2018-09-04T00:12:26.307Z,96.80
2018-09-04T00:14:55.190Z,96.80
2018-09-04T00:17:24.035Z,96.80
2018-09-04T00:19:59.206Z,96.80
2018-09-04T00:22:28.132Z,96.80
2018-09-04T00:24:57.096Z,96.80
2018-09-04T00:27:26.157Z,96.90
2018-09-04T00:29:55.095Z,97.00
2018-09-04T00:32:24.022Z,97.00
2018-09-04T00:34:52.858Z,97.10
2018-09-04T00:37:21.776Z,97.20
2018-09-04T00:39:51.172Z,97.20
2018-09-04T00:42:20.098Z,97.30
2018-09-04T00:44:49.001Z,97.50
2018-09-04T00:47:17.886Z,97.40
2018-09-04T00:49:46.772Z,97.30
2018-09-04T00:52:15.614Z,97.40
2018-09-04T00:54:44.426Z,97.40
2018-09-04T00:57:13.321Z,97.50
2018-09-04T00:59:42.171Z,97.60
2018-09-04T01:02:13.831Z,97.60
2018-09-04T01:04:42.847Z,97.70
2018-09-04T01:07:11.716Z,97.70
2018-09-04T01:09:40.591Z,97.80
2018-09-04T01:12:09.480Z,97.80
2018-09-04T01:14:38.333Z,97.90
2018-09-04T01:17:07.247Z,97.90
2018-09-04T01:19:36.065Z,98.00
2018-09-04T01:22:04.926Z,98.00
2018-09-04T01:24:34.292Z,98.20
2018-09-04T01:27:03.142Z,98.20
2018-09-04T01:29:32.016Z,98.30
2018-09-04T01:32:00.870Z,98.50
2018-09-04T01:34:29.720Z,98.40
2018-09-04T01:36:58.521Z,98.50
2018-09-04T01:39:27.320Z,98.60
2018-09-04T01:41:56.159Z,98.70
2018-09-04T01:44:25.011Z,99.00
2018-09-04T01:46:53.791Z,99.10
2018-09-04T01:49:22.697Z,99.10
2018-09-04T01:51:51.601Z,99.10
2018-09-04T01:54:20.416Z,99.20
2018-09-04T01:56:49.284Z,99.30
2018-09-04T01:59:18.059Z,99.40
2018-09-04T02:01:47.009Z,99.50
2018-09-04T02:04:15.876Z,99.70
2018-09-04T02:06:44.726Z,99.70
2018-09-04T02:09:13.558Z,99.60
2018-09-04T02:11:42.408Z,99.50
2018-09-04T02:14:11.155Z,99.60
2018-09-04T02:16:40.051Z,99.70
2018-09-04T02:19:08.841Z,99.70
2018-09-04T02:21:37.660Z,99.80
2018-09-04T02:24:06.496Z,99.90
2018-09-04T02:26:35.325Z,99.80
2018-09-04T02:29:04.189Z,99.80
2018-09-04T02:31:33.020Z,99.80
2018-09-04T02:34:01.889Z,99.80
2018-09-04T02:36:30.682Z,99.70
2018-09-04T02:38:59.543Z,99.70
2018-09-04T02:41:28.361Z,99.70
2018-09-04T02:43:57.176Z,99.80
2018-09-04T02:46:26.007Z,99.70
2018-09-04T02:48:54.804Z,99.90
2018-09-04T02:51:23.596Z,99.90
2018-09-04T02:53:52.457Z,99.90
2018-09-04T02:56:21.272Z,99.90
2018-09-04T02:58:50.226Z,99.90
2018-09-04T03:01:19.004Z,99.90
2018-09-04T03:03:47.840Z,99.90
2018-09-04T03:06:16.656Z,99.90
2018-09-04T03:08:45.555Z,99.90
2018-09-04T03:11:14.325Z,99.90
2018-09-04T03:13:43.202Z,99.90
2018-09-04T03:16:12.017Z,99.90
2018-09-04T03:18:40.876Z,99.90
2018-09-04T03:21:09.656Z,99.90
2018-09-04T03:23:38.510Z,99.90
2018-09-04T03:26:07.261Z,99.90
2018-09-04T03:28:36.001Z,99.90
2018-09-04T03:31:04.819Z,99.90
2018-09-04T03:33:33.666Z,99.90
2018-09-04T03:36:02.520Z,99.90
2018-09-04T03:38:31.396Z,99.90
2018-09-04T03:41:00.253Z,99.90
2018-09-04T03:43:29.080Z,99.90
2018-09-04T03:45:57.868Z,99.90
2018-09-04T03:48:26.826Z,99.90
2018-09-04T03:50:55.690Z,99.90
2018-09-04T03:53:24.535Z,99.90
2018-09-04T03:55:59.677Z,99.90
2018-09-04T03:58:28.487Z,99.90
2018-09-04T04:00:57.289Z,99.90
2018-09-04T04:03:26.076Z,99.90
2018-09-04T04:05:54.901Z,99.90
2018-09-04T04:08:23.795Z,99.90
2018-09-04T04:10:52.690Z,99.90
2018-09-04T04:13:21.832Z,99.90
2018-09-04T04:15:50.698Z,99.90
2018-09-04T04:18:19.831Z,99.90
2018-09-04T04:20:58.177Z,99.90
2018-09-04T04:23:27.949Z,99.90
2018-09-04T04:25:58.161Z,99.90
2018-09-04T04:28:27.142Z,99.90
2018-09-04T04:30:55.925Z,99.90
2018-09-04T04:33:24.787Z,99.90
2018-09-04T04:35:53.591Z,99.90
2018-09-04T04:38:22.390Z,99.90
2018-09-04T04:40:51.253Z,99.90
2018-09-04T04:43:20.042Z,99.90
2018-09-04T04:45:48.903Z,99.90
2018-09-04T04:48:17.862Z,99.90
2018-09-04T04:50:46.712Z,99.90
2018-09-04T04:53:15.613Z,99.90
2018-09-04T04:55:44.535Z,99.90
2018-09-04T04:58:13.375Z,99.90
2018-09-04T05:00:42.213Z,99.90
2018-09-04T05:03:11.052Z,99.90
2018-09-04T05:05:39.957Z,99.90
2018-09-04T05:08:09.701Z,99.90
2018-09-04T05:10:38.600Z,99.90
2018-09-04T05:13:07.546Z,99.90
2018-09-04T05:15:36.423Z,99.90
2018-09-04T05:18:05.428Z,99.90
2018-09-04T05:20:34.311Z,99.90
2018-09-04T05:23:03.149Z,99.90
2018-09-04T05:25:32.072Z,99.90
2018-09-04T05:28:00.905Z,99.90
2018-09-04T05:30:29.777Z,99.90
2018-09-04T05:33:09.633Z,99.90
2018-09-04T05:35:42.386Z,99.90
2018-09-04T05:38:11.234Z,99.90
2018-09-04T05:40:40.116Z,99.90
2018-09-04T05:43:10.732Z,99.90
2018-09-04T05:45:40.106Z,99.90
2018-09-04T05:48:10.922Z,99.90
2018-09-04T05:50:39.894Z,99.90
2018-09-04T05:53:08.931Z,99.90
2018-09-04T05:55:37.835Z,99.90
2018-09-04T05:58:06.730Z,99.90
2018-09-04T06:00:38.750Z,99.90
2018-09-04T06:03:07.625Z,99.90
2018-09-04T06:05:36.635Z,99.90
2018-09-04T06:08:05.640Z,99.90
2018-09-04T06:10:34.550Z,99.90
2018-09-04T06:13:03.458Z,99.90
2018-09-04T06:15:32.315Z,99.90
2018-09-04T06:18:01.286Z,99.90
2018-09-04T06:20:30.216Z,99.90
2018-09-04T06:22:59.209Z,99.90
2018-09-04T06:25:28.220Z,99.90
2018-09-04T06:27:57.488Z,99.90
2018-09-04T06:30:27.079Z,99.90
2018-09-04T06:32:56.305Z,99.90
2018-09-04T06:35:25.654Z,99.90
2018-09-04T06:37:54.952Z,99.90
2018-09-04T06:40:23.969Z,99.90
2018-09-04T06:42:53.051Z,99.90
2018-09-04T06:45:22.205Z,99.90
2018-09-04T06:47:51.417Z,99.90
2018-09-04T06:50:20.705Z,99.90
2018-09-04T06:52:50.104Z,99.90
2018-09-04T06:55:19.365Z,99.90
2018-09-04T06:57:49.176Z,99.90
2018-09-04T07:00:18.172Z,99.90
2018-09-04T07:02:47.127Z,99.90
2018-09-04T07:05:16.062Z,99.90
2018-09-04T07:07:45.110Z,99.90
2018-09-04T07:10:14.136Z,99.90
2018-09-04T07:12:43.306Z,99.90
2018-09-04T07:15:13.025Z,99.90
2018-09-04T07:17:42.030Z,99.90
2018-09-04T07:20:11.069Z,99.90
2018-09-04T07:22:40.131Z,99.90
2018-09-04T07:25:09.185Z,99.90
2018-09-04T07:27:38.097Z,99.90
2018-09-04T07:30:07.299Z,99.90
2018-09-04T07:32:36.432Z,99.90
2018-09-04T07:35:05.579Z,99.90
2018-09-04T07:37:34.656Z,99.90
2018-09-04T07:40:03.648Z,99.80
2018-09-04T07:42:32.573Z,99.70
2018-09-04T07:45:01.378Z,99.40
2018-09-04T07:47:30.383Z,99.30
2018-09-04T07:49:59.307Z,99.10
2018-09-04T07:52:28.236Z,98.90
2018-09-04T07:54:57.161Z,98.80
2018-09-04T07:57:26.102Z,98.70
2018-09-04T07:59:55.161Z,98.50
2018-09-04T08:02:24.116Z,98.30
2018-09-04T08:04:53.052Z,98.20
2018-09-04T08:07:22.273Z,97.60
2018-09-04T08:09:51.288Z,97.50
2018-09-04T08:12:20.343Z,97.40
2018-09-04T08:14:49.429Z,97.40
2018-09-04T08:17:18.307Z,97.20
2018-09-04T08:19:47.137Z,97.00
2018-09-04T08:22:16.262Z,96.60
2018-09-04T08:24:45.166Z,96.60
2018-09-04T08:27:20.761Z,96.20
2018-09-04T08:29:49.650Z,96.00
2018-09-04T08:32:18.681Z,95.80
2018-09-04T08:34:47.769Z,95.60
2018-09-04T08:37:16.829Z,95.40
2018-09-04T08:39:45.781Z,94.80
2018-09-04T08:42:14.873Z,94.80
2018-09-04T08:44:43.911Z,94.40
2018-09-04T08:47:12.897Z,94.20
2018-09-04T08:49:41.755Z,93.90
2018-09-04T08:52:10.650Z,93.30
2018-09-04T08:54:39.639Z,92.80
2018-09-04T08:57:08.693Z,92.60
2018-09-04T08:59:37.655Z,92.50
2018-09-04T09:02:06.622Z,92.50
2018-09-04T09:04:35.732Z,91.90
2018-09-04T09:07:04.922Z,91.40
2018-09-04T09:09:33.934Z,91.20
2018-09-04T09:12:02.879Z,90.70
2018-09-04T09:14:31.892Z,90.50
2018-09-04T09:17:00.866Z,89.80
2018-09-04T09:19:29.895Z,88.90
2018-09-04T09:21:58.871Z,87.00
2018-09-04T09:24:27.960Z,85.60
2018-09-04T09:26:57.175Z,84.80
2018-09-04T09:29:26.242Z,84.20
2018-09-04T09:31:55.411Z,82.80
2018-09-04T09:34:24.639Z,81.90
2018-09-04T09:36:53.786Z,81.60
2018-09-04T09:39:22.720Z,81.90
2018-09-04T09:41:51.737Z,81.50
2018-09-04T09:44:20.736Z,81.70
2018-09-04T09:46:49.624Z,81.70
2018-09-04T09:49:18.744Z,81.50
2018-09-04T09:51:47.619Z,81.40
2018-09-04T09:54:16.498Z,80.70
2018-09-04T09:56:45.545Z,81.20
2018-09-04T09:59:14.417Z,81.60
2018-09-04T10:01:48.768Z,81.50
2018-09-04T10:04:17.896Z,80.30
2018-09-04T10:06:47.138Z,78.90
2018-09-04T10:09:16.216Z,77.30
2018-09-04T10:11:45.194Z,75.50
2018-09-04T10:14:14.302Z,73.10
2018-09-04T10:16:43.374Z,72.20
2018-09-04T10:19:12.437Z,70.50
2018-09-04T10:21:41.478Z,70.00
2018-09-04T10:24:10.561Z,68.80
2018-09-04T10:26:39.569Z,68.20
2018-09-04T10:29:08.569Z,66.30
2018-09-04T10:31:37.676Z,66.10
2018-09-04T10:34:06.781Z,66.20
2018-09-04T10:36:35.801Z,64.60
2018-09-04T10:39:11.600Z,64.60
2018-09-04T10:41:40.580Z,63.10
2018-09-04T10:44:09.556Z,61.90
2018-09-04T10:46:38.556Z,61.20
2018-09-04T10:49:07.538Z,59.50
2018-09-04T10:51:36.416Z,58.50
2018-09-04T10:54:06.721Z,58.60
2018-09-04T10:56:35.759Z,56.60
2018-09-04T10:59:04.788Z,56.10
2018-09-04T11:01:33.929Z,55.40
2018-09-04T11:04:03.023Z,56.20
2018-09-04T11:06:32.008Z,55.00
2018-09-04T11:09:01.215Z,55.10
2018-09-04T11:11:30.131Z,54.80
2018-09-04T11:13:59.132Z,54.50
2018-09-04T11:16:28.079Z,54.10
2018-09-04T11:18:56.971Z,54.20
2018-09-04T11:21:25.892Z,53.70
2018-09-04T11:23:55.035Z,53.40
2018-09-04T11:26:24.270Z,53.20
2018-09-04T11:28:56.091Z,52.60
2018-09-04T11:31:25.281Z,52.00
2018-09-04T11:33:54.357Z,51.60
2018-09-04T11:36:23.502Z,52.30
2018-09-04T11:38:52.561Z,52.20
2018-09-04T11:41:21.779Z,52.10
2018-09-04T11:43:50.747Z,50.80
2018-09-04T11:46:19.777Z,50.20
2018-09-04T11:48:48.806Z,49.90
2018-09-04T11:51:17.809Z,49.70
2018-09-04T11:53:46.729Z,49.60
2018-09-04T11:56:19.600Z,49.70
2018-09-04T11:58:48.919Z,49.50
2018-09-04T12:01:20.172Z,49.20
2018-09-04T12:03:49.247Z,50.40
2018-09-04T12:06:18.272Z,50.80
2018-09-04T12:08:47.222Z,51.20
2018-09-04T12:11:16.284Z,51.10
2018-09-04T12:13:45.216Z,50.40
2018-09-04T12:16:20.822Z,49.80
2018-09-04T12:18:50.834Z,48.80
2018-09-04T12:21:19.899Z,47.20
2018-09-04T12:23:49.832Z,47.00
2018-09-04T12:26:18.809Z,46.30
2018-09-04T12:28:47.879Z,44.80
2018-09-04T12:31:17.082Z,44.60
2018-09-04T12:33:46.986Z,44.30
2018-09-04T12:36:15.939Z,44.60
2018-09-04T12:38:45.156Z,44.90
2018-09-04T12:41:16.184Z,45.40
2018-09-04T12:43:45.071Z,45.70
2018-09-04T12:46:14.197Z,45.60
2018-09-04T12:48:50.013Z,44.50
2018-09-04T12:51:19.257Z,43.80
2018-09-04T12:53:48.326Z,44.50
2018-09-04T12:56:17.712Z,44.80
2018-09-04T12:58:46.635Z,44.90
2018-09-04T13:01:15.819Z,45.90
2018-09-04T13:03:44.771Z,46.90
2018-09-04T13:06:13.890Z,47.80
2018-09-04T13:08:43.151Z,47.40
2018-09-04T13:11:12.279Z,47.10
2018-09-04T13:13:41.478Z,48.00
2018-09-04T13:16:10.876Z,49.10
2018-09-04T13:18:40.048Z,49.20
2018-09-04T13:21:09.134Z,49.10
2018-09-04T13:23:38.222Z,48.30
2018-09-04T13:26:07.237Z,47.80
2018-09-04T13:28:37.519Z,47.40
2018-09-04T13:31:06.781Z,47.20
2018-09-04T13:33:35.747Z,46.20
2018-09-04T13:36:04.726Z,46.20
2018-09-04T13:38:33.804Z,46.90
2018-09-04T13:41:08.716Z,47.10
2018-09-04T13:43:39.167Z,47.80
2018-09-04T13:46:08.316Z,48.10
2018-09-04T13:48:37.449Z,48.10
2018-09-04T13:51:06.605Z,47.70
2018-09-04T13:53:35.742Z,47.40
2018-09-04T13:56:04.823Z,46.30
2018-09-04T13:58:33.891Z,45.70
2018-09-04T14:01:02.929Z,44.40
2018-09-04T14:03:31.929Z,43.20
2018-09-04T14:06:00.941Z,41.70
2018-09-04T14:08:30.030Z,40.00
2018-09-04T14:10:59.003Z,39.50
2018-09-04T14:13:27.953Z,40.10
2018-09-04T14:15:58.470Z,41.10
2018-09-04T14:18:27.400Z,42.10
2018-09-04T14:21:02.698Z,43.80
2018-09-04T14:23:31.641Z,44.70
2018-09-04T14:26:00.557Z,45.70
2018-09-04T14:28:44.459Z,46.50
2018-09-04T14:30:58.575Z,46.80
2018-09-04T14:33:27.656Z,47.60
2018-09-04T14:35:56.636Z,47.90
2018-09-04T14:38:25.656Z,48.10
2018-09-04T14:40:54.692Z,48.40
2018-09-04T14:43:23.784Z,48.60
2018-09-04T14:45:52.843Z,48.90
2018-09-04T14:48:21.936Z,49.40
2018-09-04T14:50:50.838Z,49.50
2018-09-04T14:53:19.812Z,49.70
2018-09-04T14:55:48.784Z,49.60
2018-09-04T14:58:18.113Z,49.60
2018-09-04T15:00:47.125Z,49.40
2018-09-04T15:03:16.209Z,49.80
2018-09-04T15:05:45.361Z,50.30
2018-09-04T15:08:15.360Z,49.60
2018-09-04T15:10:44.295Z,49.70
2018-09-04T15:13:13.231Z,49.60
2018-09-04T15:15:42.203Z,49.80
2018-09-04T15:18:11.181Z,49.60
2018-09-04T15:20:40.990Z,49.70
2018-09-04T15:23:09.819Z,49.40
2018-09-04T15:25:38.886Z,49.50
2018-09-04T15:28:17.313Z,49.90
2018-09-04T15:30:46.146Z,51.40
2018-09-04T15:33:14.993Z,52.80
2018-09-04T15:35:43.811Z,52.20
2018-09-04T15:38:13.602Z,50.70
2018-09-04T15:40:42.590Z,49.50
2018-09-04T15:43:11.423Z,48.60
2018-09-04T15:45:40.351Z,48.00
2018-09-04T15:48:09.212Z,47.00
2018-09-04T15:50:38.115Z,46.60
2018-09-04T15:53:07.020Z,46.50
2018-09-04T15:55:36.101Z,46.30
2018-09-04T15:58:04.937Z,46.20
2018-09-04T16:00:40.009Z,46.30
2018-09-04T16:03:08.842Z,46.20
2018-09-04T16:05:37.621Z,46.80
2018-09-04T16:08:06.532Z,47.30
2018-09-04T16:10:35.451Z,46.90
2018-09-04T16:13:04.291Z,46.80
2018-09-04T16:15:33.188Z,47.70
2018-09-04T16:18:01.949Z,48.80
2018-09-04T16:20:30.880Z,49.80
2018-09-04T16:22:59.716Z,51.10
2018-09-04T16:25:28.578Z,51.80
2018-09-04T16:27:57.451Z,52.70
2018-09-04T16:30:26.336Z,53.30
2018-09-04T16:32:55.172Z,54.10
2018-09-04T16:35:24.078Z,54.90
2018-09-04T16:37:52.898Z,55.70
2018-09-04T16:40:21.762Z,56.50
2018-09-04T16:42:50.604Z,57.10
2018-09-04T16:45:19.515Z,57.80
2018-09-04T16:47:48.393Z,57.80
2018-09-04T16:50:17.310Z,58.20
2018-09-04T16:52:46.211Z,58.30
2018-09-04T16:55:15.109Z,58.80
2018-09-04T16:57:44.018Z,59.10
2018-09-04T17:00:12.879Z,59.30
2018-09-04T17:02:41.778Z,58.90
2018-09-04T17:05:10.562Z,58.20
2018-09-04T17:07:39.488Z,58.70
2018-09-04T17:10:08.312Z,58.70
2018-09-04T17:12:37.193Z,58.60
2018-09-04T17:15:06.075Z,58.40
2018-09-04T17:17:34.931Z,58.40
2018-09-04T17:20:04.000Z,58.90
2018-09-04T17:22:32.880Z,59.40
2018-09-04T17:25:01.682Z,59.60
2018-09-04T17:27:30.583Z,59.80
2018-09-04T17:29:59.410Z,59.90
2018-09-04T17:32:28.321Z,60.10
2018-09-04T17:34:57.175Z,60.40
2018-09-04T17:37:26.041Z,61.10
2018-09-04T17:39:54.955Z,61.90
2018-09-04T17:42:23.888Z,67.80
2018-09-04T17:44:52.717Z,72.70
2018-09-04T17:47:21.575Z,75.00
2018-09-04T17:49:50.428Z,77.30
2018-09-04T17:52:19.320Z,78.70
2018-09-04T17:54:48.181Z,80.10
2018-09-04T17:57:17.038Z,81.10
2018-09-04T17:59:45.853Z,81.70
2018-09-04T18:02:14.748Z,82.30
2018-09-04T18:04:43.546Z,82.70
2018-09-04T18:07:12.477Z,82.80
2018-09-04T18:09:41.336Z,83.10
2018-09-04T18:12:10.180Z,83.40
2018-09-04T18:14:39.036Z,83.70
2018-09-04T18:17:08.346Z,84.00
2018-09-04T18:19:37.208Z,84.20
2018-09-04T18:22:06.068Z,84.40
2018-09-04T18:24:35.227Z,84.50
2018-09-04T18:27:04.131Z,84.50
2018-09-04T18:29:32.977Z,84.70
2018-09-04T18:32:01.918Z,85.20
2018-09-04T18:34:30.742Z,85.50
2018-09-04T18:36:59.693Z,85.80
2018-09-04T18:39:28.603Z,85.80
2018-09-04T18:41:57.513Z,86.00
2018-09-04T18:44:26.410Z,86.40
2018-09-04T18:46:55.321Z,86.70
2018-09-04T18:49:24.149Z,87.20
2018-09-04T18:51:53.038Z,87.30
2018-09-04T18:54:21.869Z,87.40
2018-09-04T18:56:50.670Z,87.40
2018-09-04T18:59:19.613Z,87.70
2018-09-04T19:01:48.414Z,88.00
2018-09-04T19:04:17.289Z,88.10
2018-09-04T19:06:46.389Z,88.30
2018-09-04T19:09:15.242Z,88.10
2018-09-04T19:11:44.042Z,88.20
2018-09-04T19:14:12.963Z,88.20
2018-09-04T19:16:41.837Z,88.30
2018-09-04T19:19:10.689Z,88.80
2018-09-04T19:21:39.503Z,89.30
2018-09-04T19:24:08.400Z,90.00
2018-09-04T19:26:37.201Z,90.00
2018-09-04T19:29:06.281Z,90.00
2018-09-04T19:31:35.136Z,90.30
2018-09-04T19:34:04.059Z,90.40
2018-09-04T19:36:32.910Z,90.40
2018-09-04T19:39:01.752Z,90.10
2018-09-04T19:41:30.572Z,90.10
2018-09-04T19:43:59.431Z,90.10
2018-09-04T19:46:28.279Z,90.10
2018-09-04T19:48:57.231Z,90.00
2018-09-04T19:51:26.076Z,90.10
2018-09-04T19:53:54.940Z,90.10
2018-09-04T19:56:23.823Z,90.30
2018-09-04T19:58:52.893Z,90.40
2018-09-04T20:01:21.868Z,91.20
2018-09-04T20:03:50.765Z,91.30
2018-09-04T20:06:19.630Z,91.50
2018-09-04T20:08:48.466Z,91.40
2018-09-04T20:11:17.293Z,91.50
2018-09-04T20:13:46.176Z,91.50
2018-09-04T20:16:42.926Z,91.70
2018-09-04T20:19:11.847Z,91.90
2018-09-04T20:21:40.768Z,92.00
2018-09-04T20:24:09.653Z,92.20
2018-09-04T20:26:38.500Z,92.30
2018-09-04T20:29:07.381Z,92.40
2018-09-04T20:31:36.237Z,92.50
2018-09-04T20:34:05.123Z,92.60
2018-09-04T20:36:33.946Z,92.70
2018-09-04T20:39:02.896Z,92.90
2018-09-04T20:41:31.751Z,93.10
2018-09-04T20:44:00.617Z,93.20
2018-09-04T20:46:29.487Z,93.30
2018-09-04T20:48:58.449Z,93.40
2018-09-04T20:51:27.300Z,93.50
2018-09-04T20:53:56.132Z,93.50
2018-09-04T20:56:25.619Z,93.60
2018-09-04T20:59:05.501Z,93.90
2018-09-04T21:01:45.379Z,93.90
2018-09-04T21:04:25.421Z,94.00
2018-09-04T21:06:54.407Z,94.10
2018-09-04T21:09:34.508Z,94.20
2018-09-04T21:12:03.398Z,94.40
2018-09-04T21:14:32.276Z,94.20
2018-09-04T21:17:01.112Z,94.20
2018-09-04T21:19:30.075Z,94.30
2018-09-04T21:21:58.875Z,94.20
2018-09-04T21:24:27.735Z,94.30
2018-09-04T21:26:56.848Z,94.30
2018-09-04T21:29:25.702Z,94.30
2018-09-04T21:31:54.538Z,94.30
2018-09-04T21:34:23.346Z,94.40
2018-09-04T21:36:52.120Z,94.40
2018-09-04T21:39:20.955Z,94.50
2018-09-04T21:41:49.745Z,94.60
2018-09-04T21:44:18.609Z,94.60
2018-09-04T21:46:47.493Z,94.60
2018-09-04T21:49:16.775Z,94.60
2018-09-04T21:51:45.608Z,94.60
2018-09-04T21:54:14.407Z,94.70
2018-09-04T21:56:43.276Z,94.80
2018-09-04T21:59:12.080Z,94.90
2018-09-04T22:01:40.905Z,95.00
2018-09-04T22:04:09.706Z,95.30
2018-09-04T22:06:38.616Z,95.40
2018-09-04T22:09:07.920Z,95.50
2018-09-04T22:11:36.768Z,95.60
2018-09-04T22:14:05.710Z,95.70
2018-09-04T22:16:34.617Z,95.80
2018-09-04T22:19:03.440Z,95.80
2018-09-04T22:21:32.316Z,95.90
2018-09-04T22:24:01.134Z,96.00
2018-09-04T22:26:29.961Z,96.10
2018-09-04T22:28:58.822Z,96.20
2018-09-04T22:31:27.680Z,96.30
2018-09-04T22:33:56.479Z,96.40
2018-09-04T22:36:25.357Z,96.60
2018-09-04T22:38:54.130Z,96.70
2018-09-04T22:41:22.935Z,97.00
2018-09-04T22:43:51.763Z,97.10
2018-09-04T22:46:20.538Z,97.20
2018-09-04T22:48:49.398Z,97.30
2018-09-04T22:51:23.757Z,97.40
2018-09-04T22:53:52.542Z,97.50
2018-09-04T22:56:21.378Z,97.50
2018-09-04T22:58:50.196Z,97.50
2018-09-04T23:01:19.035Z,97.70
2018-09-04T23:03:47.932Z,97.80
2018-09-04T23:06:16.765Z,97.70
2018-09-04T23:08:45.618Z,97.30
2018-09-04T23:11:14.446Z,97.20
2018-09-04T23:13:43.327Z,97.20
2018-09-04T23:16:12.176Z,97.00
2018-09-04T23:18:41.002Z,97.00
2018-09-04T23:21:09.830Z,97.00
2018-09-04T23:23:38.640Z,96.70
2018-09-04T23:26:07.512Z,96.80
2018-09-04T23:28:36.390Z,96.60
2018-09-04T23:31:05.252Z,96.60
2018-09-04T23:33:34.670Z,96.60
2018-09-04T23:36:03.560Z,96.60
2018-09-04T23:38:32.371Z,96.70
2018-09-04T23:41:01.180Z,96.70
2018-09-04T23:43:29.979Z,96.70
2018-09-04T23:46:02.756Z,96.80
2018-09-04T23:48:31.580Z,96.70
2018-09-04T23:51:01.670Z,96.70
2018-09-04T23:53:30.507Z,96.70
2018-09-04T23:55:59.348Z,96.70
2018-09-04T23:58:28.175Z,96.60
